Time;durP1;ratioP1;P1;durP2;ratioP2;P2;SDS_P1;SDS_P2;PMS_P1;PMS_P2;Temp;Humidity;BMP_temperature;BMP_pressure;BME280_temperature;BME280_humidity;BME280_pressure;Samples;Min_cycle;Max_cycle;Signal;HPM_P1;HPM_P2
2021/06/26 00:00:39;;;;;;;1999.90;999.90;;;18.30;99.90;;;;;;5013472;28;20534;-81
2021/06/26 00:03:40;;;;;;;1999.90;999.90;;;18.30;99.90;;;;;;5012630;28;20503;-81
2021/06/26 00:12:38;;;;;;;1999.90;999.90;;;18.30;99.90;;;;;;5075327;28;20462;-81
2021/06/26 00:15:30;;;;;;;;;;;;;;;;;;;;;
2021/06/26 00:18:28;;;;;;;1999.90;999.90;;;18.30;99.90;;;;;;5076957;28;20453;-81
2021/06/26 00:21:14;;;;;;;;;;;;;;;;;;;;;
2021/06/26 00:27:57;;;;;;;1999.90;999.90;;;18.30;99.90;;;;;;4980428;28;20414;-81
2021/06/26 00:31:09;;;;;;;1999.90;999.90;;;18.20;99.90;;;;;;4978055;28;20497;-81
2021/06/26 00:33:58;;;;;;;1999.90;999.90;;;18.10;99.90;;;;;;5037351;28;20435;-81
2021/06/26 00:37:04;;;;;;;1999.90;999.90;;;18.20;99.90;;;;;;5037621;28;20408;-81
2021/06/26 00:43:04;;;;;;;1999.90;999.90;;;18.00;99.90;;;;;;5056410;28;20489;-81
2021/06/26 00:46:00;;;;;;;1999.90;999.90;;;18.10;99.90;;;;;;4955614;29;20407;-81
2021/06/26 00:49:07;;;;;;;1999.90;999.90;;;17.90;99.90;;;;;;4991353;28;20403;-81
2021/06/26 00:51:41;;;;;;;1999.90;999.90;;;17.90;99.90;;;;;;4953166;28;20407;-81
2021/06/26 00:54:44;;;;;;;1999.90;999.90;;;17.90;99.90;;;;;;5048275;28;20414;-81
2021/06/26 00:57:26;;;;;;;1999.90;999.90;;;17.90;99.90;;;;;;5005001;28;20461;-82
2021/06/26 01:02:54;;;;;;;1999.90;999.90;;;17.90;99.90;;;;;;5044215;28;20424;-81
2021/06/26 01:05:39;;;;;;;1999.90;999.90;;;17.90;99.90;;;;;;5038741;28;20478;-81
2021/06/26 01:11:57;;;;;;;;;;;;;;;;;;;;;
2021/06/26 01:14:58;;;;;;;1999.90;999.90;;;17.80;99.90;;;;;;5042792;28;20502;-81
2021/06/26 01:17:43;;;;;;;1999.90;999.90;;;17.70;99.90;;;;;;4955340;28;20416;-81
2021/06/26 01:20:43;;;;;;;1999.90;999.90;;;17.50;99.90;;;;;;4955512;29;20455;-82
2021/06/26 01:23:48;;;;;;;1999.90;999.90;;;17.50;99.90;;;;;;4917912;29;20509;-81
2021/06/26 01:26:51;;;;;;;1999.90;999.90;;;17.60;99.90;;;;;;4888380;29;20421;-81
2021/06/26 01:29:56;;;;;;;1999.90;999.90;;;17.50;99.90;;;;;;5030811;28;20423;-81
2021/06/26 01:32:57;;;;;;;1999.90;999.90;;;17.20;99.90;;;;;;5038126;28;20588;-81
2021/06/26 01:37:56;;;;;;;1999.90;999.90;;;17.20;99.90;;;;;;5162912;22;20476;-89
2021/06/26 01:40:25;;;;;;;1999.90;999.90;;;17.30;99.90;;;;;;5092841;28;20444;-89
2021/06/26 01:42:52;;;;;;;1999.90;999.90;;;17.30;99.90;;;;;;5093170;28;20401;-89
2021/06/26 01:45:19;;;;;;;1999.90;999.90;;;17.20;99.90;;;;;;5093215;28;20397;-89
2021/06/26 01:47:50;;;;;;;1999.90;999.90;;;17.10;99.90;;;;;;5058518;28;20438;-89
2021/06/26 01:50:18;;;;;;;1999.90;999.90;;;17.10;99.90;;;;;;5092972;28;20425;-89
2021/06/26 01:52:44;;;;;;;1999.90;999.90;;;17.10;99.90;;;;;;5092930;28;20870;-89
2021/06/26 01:55:12;;;;;;;1999.90;999.90;;;17.10;99.90;;;;;;5093113;28;20438;-89
2021/06/26 01:57:39;;;;;;;1999.90;999.90;;;17.10;99.90;;;;;;5075002;28;20413;-89
2021/06/26 02:00:06;;;;;;;1999.90;999.90;;;17.00;99.90;;;;;;5092694;28;20441;-89
2021/06/26 02:02:31;;;;;;;1999.90;999.90;;;17.00;99.90;;;;;;5074708;28;20819;-89
2021/06/26 02:04:57;;;;;;;1999.90;999.90;;;17.00;99.90;;;;;;5095711;28;20393;-89
2021/06/26 02:07:23;;;;;;;1999.90;999.90;;;16.90;99.90;;;;;;5096702;28;20518;-89
2021/06/26 02:09:55;;;;;;;1999.90;999.90;;;16.80;99.90;;;;;;5096309;28;20213;-89
2021/06/26 02:12:20;;;;;;;1999.90;999.90;;;16.70;99.90;;;;;;5096989;28;20144;-87
2021/06/26 02:14:46;;;;;;;1999.90;999.90;;;16.60;99.90;;;;;;5096476;28;20455;-86
2021/06/26 02:17:12;;;;;;;1999.90;999.90;;;16.60;99.90;;;;;;5096611;28;20194;-86
2021/06/26 02:19:37;;;;;;;1999.90;999.90;;;16.70;99.90;;;;;;5078034;28;20531;-86
2021/06/26 02:22:03;;;;;;;1999.90;999.90;;;16.60;99.90;;;;;;5094886;28;20665;-87
2021/06/26 02:24:29;;;;;;;1999.90;999.90;;;16.60;99.90;;;;;;5096801;28;20163;-86
2021/06/26 02:26:55;;;;;;;1999.90;999.90;;;16.70;99.90;;;;;;5096125;28;20288;-87
2021/06/26 02:29:20;;;;;;;1999.90;999.90;;;16.60;99.90;;;;;;5096535;28;20183;-87
2021/06/26 02:31:46;;;;;;;1999.90;999.90;;;16.70;99.90;;;;;;5096102;28;20269;-87
2021/06/26 02:34:15;;;;;;;1999.90;999.90;;;16.60;99.90;;;;;;5096173;28;20187;-87
2021/06/26 02:36:42;;;;;;;1999.90;999.90;;;16.50;99.90;;;;;;5096210;28;20179;-86
2021/06/26 02:39:07;;;;;;;1999.90;999.90;;;16.50;99.90;;;;;;5077707;28;20441;-86
2021/06/26 02:41:36;;;;;;;1999.90;999.90;;;16.50;99.90;;;;;;5095403;28;21033;-86
2021/06/26 02:44:02;;;;;;;1999.90;999.90;;;16.60;99.90;;;;;;5095770;28;20163;-86
2021/06/26 02:46:28;;;;;;;1999.90;999.90;;;16.50;99.90;;;;;;5078980;28;20455;-87
2021/06/26 02:48:57;;;;;;;1999.90;999.90;;;16.40;99.90;;;;;;5095780;28;20183;-87
2021/06/26 02:51:23;;;;;;;1999.90;999.90;;;16.40;99.90;;;;;;5077564;28;20538;-86
2021/06/26 02:53:48;;;;;;;1999.90;999.90;;;16.30;99.90;;;;;;5095683;28;20496;-87
2021/06/26 02:56:14;;;;;;;1999.90;999.90;;;16.30;99.90;;;;;;5095144;28;20259;-87
2021/06/26 02:58:40;;;;;;;1999.90;999.90;;;16.30;99.90;;;;;;5095639;28;20650;-87
2021/06/26 03:01:05;;;;;;;1999.90;999.90;;;16.30;99.90;;;;;;5095485;28;20183;-86
2021/06/26 03:03:31;;;;;;;1999.90;999.90;;;16.30;99.90;;;;;;5095549;28;20655;-86
2021/06/26 03:05:57;;;;;;;1999.90;999.90;;;16.20;99.90;;;;;;5096077;28;20163;-86
2021/06/26 03:08:22;;;;;;;1999.90;999.90;;;16.20;99.90;;;;;;5095665;28;20171;-87
2021/06/26 03:10:48;;;;;;;1999.90;999.90;;;16.20;99.90;;;;;;5095260;28;20248;-87
2021/06/26 03:13:15;;;;;;;1999.90;999.90;;;16.20;99.90;;;;;;5095278;28;20159;-86
2021/06/26 03:15:41;;;;;;;1999.90;999.90;;;16.10;99.90;;;;;;5095152;28;20253;-86
2021/06/26 03:18:07;;;;;;;1999.90;999.90;;;16.10;99.90;;;;;;5095137;28;20492;-87
2021/06/26 03:20:33;;;;;;;1999.90;999.90;;;16.00;99.90;;;;;;5095057;28;20570;-87
2021/06/26 03:22:58;;;;;;;1999.90;999.90;;;16.00;99.90;;;;;;5095350;28;20601;-87
2021/06/26 03:25:24;;;;;;;1999.90;999.90;;;16.00;99.90;;;;;;5094195;28;20216;-86
2021/06/26 03:27:50;;;;;;;1999.90;999.90;;;16.00;99.90;;;;;;5095225;28;20170;-87
2021/06/26 03:30:16;;;;;;;1999.90;999.90;;;15.90;99.90;;;;;;5095048;28;20417;-87
2021/06/26 03:32:42;;;;;;;1999.90;999.90;;;15.90;99.90;;;;;;5095170;28;20159;-87
2021/06/26 03:35:08;;;;;;;1999.90;999.90;;;15.90;99.90;;;;;;5094940;28;20433;-87
2021/06/26 03:37:34;;;;;;;1999.90;999.90;;;15.90;99.90;;;;;;5095018;28;20177;-87
2021/06/26 03:40:00;;;;;;;1999.90;999.90;;;15.90;99.90;;;;;;5076410;28;20425;-87
2021/06/26 03:42:25;;;;;;;1999.90;999.90;;;15.90;99.90;;;;;;5093454;28;20931;-86
2021/06/26 03:44:51;;;;;;;1999.90;999.90;;;16.00;99.90;;;;;;5076594;28;20198;-86
2021/06/26 03:47:17;;;;;;;1999.90;999.90;;;15.90;99.90;;;;;;5094718;28;20685;-86
2021/06/26 03:49:43;;;;;;;1999.90;999.90;;;15.90;99.90;;;;;;5094697;28;20532;-86
2021/06/26 03:52:09;;;;;;;1999.90;999.90;;;15.80;99.90;;;;;;5095056;28;20635;-87
2021/06/26 03:54:35;;;;;;;1999.90;999.90;;;15.80;99.90;;;;;;5094921;28;20200;-87
2021/06/26 03:57:01;;;;;;;1999.90;999.90;;;15.90;99.90;;;;;;5094781;28;20909;-86
2021/06/26 03:59:26;;;;;;;1999.90;999.90;;;15.90;99.90;;;;;;5094345;28;20449;-87
2021/06/26 04:01:52;;;;;;;1999.90;999.90;;;15.90;99.90;;;;;;5093254;28;20916;-87
2021/06/26 04:04:19;;;;;;;1999.90;999.90;;;15.90;99.90;;;;;;5094384;28;20220;-87
2021/06/26 04:06:46;;;;;;;1999.90;999.90;;;15.90;99.90;;;;;;5094345;28;20248;-87
2021/06/26 04:09:11;;;;;;;1999.90;999.90;;;16.00;99.90;;;;;;5094697;28;20414;-87
2021/06/26 04:11:38;;;;;;;1999.90;999.90;;;16.10;99.90;;;;;;5094094;28;20468;-87
2021/06/26 04:14:04;;;;;;;1999.90;999.90;;;16.10;99.90;;;;;;5094140;28;20409;-87
2021/06/26 04:16:33;;;;;;;1999.90;999.90;;;16.20;99.90;;;;;;5092793;28;20228;-87
2021/06/26 04:18:59;;;;;;;1999.90;999.90;;;16.30;99.90;;;;;;5094082;28;20194;-87
2021/06/26 04:21:24;;;;;;;1999.90;999.90;;;16.40;99.90;;;;;;5093869;28;20822;-87
2021/06/26 04:23:50;;;;;;;1999.90;999.90;;;16.40;99.90;;;;;;5092825;28;20634;-87
2021/06/26 04:26:16;;;;;;;1999.90;999.90;;;16.40;99.90;;;;;;5093626;28;20201;-87
2021/06/26 04:28:42;;;;;;;1999.90;999.90;;;16.50;99.90;;;;;;5093892;28;20400;-87
2021/06/26 04:31:10;;;;;;;1999.90;999.90;;;16.50;99.90;;;;;;5093846;28;20174;-87
2021/06/26 04:33:36;;;;;;;1999.90;999.90;;;16.60;99.90;;;;;;5093769;28;20171;-87
2021/06/26 04:36:11;;;;;;;1999.90;999.90;;;16.70;99.90;;;;;;5092424;28;20811;-87
2021/06/26 04:38:37;;;;;;;1999.90;999.90;;;16.80;99.90;;;;;;5093544;28;20667;-87
2021/06/26 04:41:02;;;;;;;1999.90;999.90;;;16.90;99.90;;;;;;5092575;28;20452;-86
2021/06/26 04:43:28;;;;;;;1999.90;999.90;;;17.00;99.90;;;;;;5093952;28;20174;-87
2021/06/26 04:46:00;;;;;;;1999.90;999.90;;;17.10;99.90;;;;;;5075358;28;20170;-87
2021/06/26 04:48:28;;;;;;;1999.90;999.90;;;17.10;99.90;;;;;;5093322;28;20297;-87
2021/06/26 04:50:54;;;;;;;1999.90;999.90;;;17.20;99.90;;;;;;5093822;28;20417;-86
2021/06/26 04:53:19;;;;;;;1999.90;999.90;;;17.20;99.90;;;;;;5093693;28;20889;-87
2021/06/26 04:55:54;;;;;;;1999.90;999.90;;;17.30;99.90;;;;;;5093390;28;20412;-87
2021/06/26 04:58:21;;;;;;;1999.90;999.90;;;17.30;99.90;;;;;;5093350;28;20166;-87
2021/06/26 05:00:50;;;;;;;1999.90;999.90;;;17.40;99.90;;;;;;5075463;28;20464;-87
2021/06/26 05:03:19;;;;;;;1999.90;999.90;;;17.40;99.90;;;;;;5093461;28;20409;-87
2021/06/26 05:05:46;;;;;;;1999.90;999.90;;;17.20;99.90;;;;;;5093750;28;20491;-87
2021/06/26 05:08:12;;;;;;;1999.90;999.90;;;17.30;99.90;;;;;;5093458;28;20401;-87
2021/06/26 05:10:39;;;;;;;1999.90;999.90;;;17.20;99.90;;;;;;5093271;28;20433;-87
2021/06/26 05:13:05;;;;;;;1999.90;999.90;;;17.20;99.90;;;;;;5075270;28;20976;-87
2021/06/26 05:15:31;;;;;;;1999.90;999.90;;;17.20;99.90;;;;;;5093468;28;20412;-87
2021/06/26 05:17:57;;;;;;;1999.90;999.90;;;17.00;99.90;;;;;;5075264;28;20417;-87
2021/06/26 05:20:23;;;;;;;1999.90;999.90;;;17.00;99.90;;;;;;5075023;28;21011;-87
2021/06/26 05:22:48;;;;;;;1999.90;999.90;;;17.00;99.90;;;;;;5091931;28;20179;-87
2021/06/26 05:25:17;;;;;;;1999.90;999.90;;;17.00;99.90;;;;;;5093476;28;20167;-87
2021/06/26 05:27:46;;;;;;;1999.90;999.90;;;16.90;99.90;;;;;;5093205;28;20167;-87
2021/06/26 05:30:13;;;;;;;1999.90;999.90;;;16.90;99.90;;;;;;5074984;28;20843;-87
2021/06/26 05:32:39;;;;;;;1999.90;999.90;;;17.10;99.90;;;;;;5093028;28;20418;-87
2021/06/26 05:35:06;;;;;;;1999.90;999.90;;;17.30;99.90;;;;;;5093070;28;20409;-87
2021/06/26 05:37:32;;;;;;;1999.90;999.90;;;17.20;99.90;;;;;;5093735;28;20780;-87
2021/06/26 05:39:58;;;;;;;1999.90;999.90;;;17.10;99.90;;;;;;5096048;28;20425;-87
2021/06/26 05:42:24;;;;;;;1999.90;999.90;;;17.10;99.90;;;;;;5095779;28;20407;-87
2021/06/26 05:44:52;;;;;;;1999.90;999.90;;;17.10;99.90;;;;;;5097284;28;20606;-87
2021/06/26 05:47:18;;;;;;;1999.90;999.90;;;17.10;99.90;;;;;;5096945;28;20160;-87
2021/06/26 05:49:44;;;;;;;1999.90;999.90;;;17.20;99.90;;;;;;5097079;28;20470;-87
2021/06/26 05:52:10;;;;;;;1999.90;999.90;;;17.30;99.90;;;;;;5096772;28;20164;-87
2021/06/26 05:54:35;;;;;;;1999.90;999.90;;;17.40;99.90;;;;;;5097343;28;20164;-87
2021/06/26 05:57:07;;;;;;;1999.90;999.90;;;17.40;99.90;;;;;;5095422;28;20179;-87
2021/06/26 05:59:32;;;;;;;1999.90;999.90;;;17.50;99.90;;;;;;5096732;28;20240;-87
2021/06/26 06:01:58;;;;;;;1999.90;999.90;;;17.60;99.90;;;;;;5096819;28;20508;-87
2021/06/26 06:04:24;;;;;;;1999.90;999.90;;;17.70;99.90;;;;;;5096769;28;20171;-87
2021/06/26 06:06:49;;;;;;;1999.90;999.90;;;17.90;99.90;;;;;;5096503;28;20159;-87
2021/06/26 06:09:15;;;;;;;1999.90;999.90;;;17.90;99.90;;;;;;5096500;28;20175;-87
2021/06/26 06:11:41;;;;;;;1999.90;999.90;;;18.00;99.90;;;;;;5078370;28;20546;-87
2021/06/26 06:14:07;;;;;;;1999.90;999.90;;;18.00;99.90;;;;;;5096541;28;20155;-87
2021/06/26 06:16:35;;;;;;;1999.90;999.90;;;18.10;99.90;;;;;;5078600;28;20397;-87
2021/06/26 06:19:01;;;;;;;1999.90;999.90;;;18.10;99.90;;;;;;5096215;28;20746;-87
2021/06/26 06:21:27;;;;;;;1999.90;999.90;;;18.20;99.90;;;;;;5096103;28;20477;-87
2021/06/26 06:23:52;;;;;;;1999.90;999.90;;;18.30;99.90;;;;;;5096362;28;20212;-87
2021/06/26 06:26:18;;;;;;;1999.90;999.90;;;18.40;99.90;;;;;;5096264;28;20163;-87
2021/06/26 06:28:44;;;;;;;1999.90;999.90;;;18.30;99.90;;;;;;5096134;28;20187;-87
2021/06/26 06:31:09;;;;;;;1999.90;999.90;;;18.30;99.90;;;;;;5096383;28;20531;-87
2021/06/26 06:33:35;;;;;;;1999.90;999.90;;;18.50;99.90;;;;;;5096339;28;20209;-87
2021/06/26 06:36:06;;;;;;;1999.90;999.90;;;18.50;99.90;;;;;;5095832;28;20717;-87
2021/06/26 06:38:32;;;;;;;1999.90;999.90;;;18.50;99.90;;;;;;5077872;28;20186;-87
2021/06/26 06:40:57;;;;;;;1999.90;999.90;;;18.60;99.90;;;;;;5094608;28;20445;-90
2021/06/26 06:43:23;;;;;;;1999.90;999.90;;;18.70;99.90;;;;;;5078329;28;20160;-89
2021/06/26 06:45:49;;;;;;;1999.90;999.90;;;18.70;99.90;;;;;;5077598;28;20160;-89
2021/06/26 06:48:15;;;;;;;1999.90;999.90;;;18.80;99.90;;;;;;5094481;28;20170;-89
2021/06/26 06:50:40;;;;;;;1999.90;999.90;;;18.80;99.90;;;;;;5094726;28;20192;-90
2021/06/26 06:53:07;;;;;;;1999.90;999.90;;;18.90;99.90;;;;;;5077448;28;20190;-89
2021/06/26 06:55:33;;;;;;;1999.90;999.90;;;18.90;99.90;;;;;;5095547;28;20212;-90
2021/06/26 06:58:01;;;;;;;1999.90;999.90;;;19.00;99.90;;;;;;5094149;28;20995;-90
2021/06/26 07:00:27;;;;;;;1999.90;999.90;;;19.10;99.90;;;;;;5095366;28;20208;-90
2021/06/26 07:02:53;;;;;;;1999.90;999.90;;;19.20;99.90;;;;;;5094135;28;20413;-90
2021/06/26 07:05:19;;;;;;;1999.90;999.90;;;19.10;99.90;;;;;;5077286;28;20208;-90
2021/06/26 07:07:44;;;;;;;1999.90;999.90;;;19.10;99.90;;;;;;5095427;28;20181;-90
2021/06/26 07:10:11;;;;;;;1999.90;999.90;;;19.10;99.90;;;;;;5094394;28;20191;-87
2021/06/26 07:12:36;;;;;;;1999.90;999.90;;;19.20;99.90;;;;;;5077914;28;20505;-87
2021/06/26 07:15:03;;;;;;;1999.90;999.90;;;19.30;99.90;;;;;;5095305;28;20398;-87
2021/06/26 07:17:29;;;;;;;1999.90;999.90;;;19.30;99.90;;;;;;5095016;28;20412;-87
2021/06/26 07:19:55;;;;;;;1999.90;999.90;;;19.40;99.90;;;;;;5095326;28;20421;-87
2021/06/26 07:22:23;;;;;;;1999.90;999.90;;;19.40;99.90;;;;;;5093921;28;20654;-87
2021/06/26 07:24:52;;;;;;;1999.90;999.90;;;19.40;99.90;;;;;;5077019;28;20642;-89
2021/06/26 07:27:17;;;;;;;1999.90;999.90;;;19.50;99.90;;;;;;5095537;28;20409;-89
2021/06/26 07:29:52;;;;;;;1999.90;999.90;;;19.50;99.90;;;;;;5095295;28;20413;-88
2021/06/26 07:32:18;;;;;;;1999.90;999.90;;;19.60;99.90;;;;;;5093728;28;20610;-87
2021/06/26 07:34:44;;;;;;;1999.90;999.90;;;19.50;99.90;;;;;;5095152;28;20394;-88
2021/06/26 07:37:28;;;;;;;;;;;;;;;;;;;;;
2021/06/26 07:40:45;;;;;;;;;;;;;;;;;;;;;
2021/06/26 07:43:41;;;;;;;1999.90;999.90;;;19.70;99.90;;;;;;5030433;28;20415;-83
2021/06/26 07:46:54;;;;;;;1999.90;999.90;;;19.90;99.90;;;;;;5098145;28;20792;-84
2021/06/26 07:49:48;;;;;;;1999.90;999.90;;;20.00;99.90;;;;;;5076037;28;20517;-83
2021/06/26 07:55:35;;;;;;;;;;;;;;;;;;;;;
2021/06/26 07:58:36;;;;;;;1999.90;999.90;;;20.10;99.90;;;;;;5098516;28;20425;-83
2021/06/26 08:01:11;;;;;;;1999.90;999.90;;;20.10;99.90;;;;;;5084902;28;20453;-83
2021/06/26 08:04:05;;;;;;;1999.90;999.90;;;20.10;99.90;;;;;;5095176;28;20517;-83
2021/06/26 08:06:56;;;;;;;1999.90;999.90;;;20.20;99.90;;;;;;5073882;28;20785;-84
2021/06/26 08:09:29;;;;;;;1999.90;999.90;;;20.30;99.90;;;;;;5078625;28;20936;-83
2021/06/26 08:12:18;;;;;;;;;;;;;;;;;;;;;
2021/06/26 08:15:49;;;;;;;1999.90;999.90;;;20.60;99.90;;;;;;5098682;28;20989;-83
2021/06/26 08:18:42;;;;;;;;;;;;;;;;;;;;;
2021/06/26 08:21:54;;;;;;;1999.90;999.90;;;20.70;99.90;;;;;;5097620;28;20454;-83
2021/06/26 08:24:53;;;;;;;1999.90;999.90;;;20.70;99.90;;;;;;5071364;28;20394;-83
2021/06/26 08:28:00;;;;;;;1999.90;999.90;;;20.90;99.90;;;;;;5096860;28;20413;-84
2021/06/26 08:30:55;;;;;;;1999.90;999.90;;;21.00;99.90;;;;;;5096746;28;20428;-83
2021/06/26 08:34:16;;;;;;;1999.90;999.90;;;21.10;99.90;;;;;;5078413;28;20397;-83
2021/06/26 08:44:30;;;;;;;1999.90;999.90;;;21.40;99.90;;;;;;4956190;29;20886;-83
2021/06/26 08:47:35;;;;;;;1999.90;999.90;;;21.40;99.90;;;;;;4925997;29;21010;-83
2021/06/26 08:53:31;;;;;;;1999.90;999.90;;;21.60;99.90;;;;;;5015336;28;20483;-85
2021/06/26 08:56:26;;;;;;;1999.90;999.90;;;21.70;99.90;;;;;;4996664;28;20428;-84
2021/06/26 08:59:17;;;;;;;1999.90;999.90;;;21.90;99.90;;;;;;5000469;28;20495;-84
2021/06/26 09:01:57;;;;;;;1999.90;999.90;;;22.00;99.90;;;;;;5097566;28;20453;-84
2021/06/26 09:05:03;;;;;;;1999.90;999.90;;;22.10;99.90;;;;;;5080276;28;20406;-84
2021/06/26 09:08:40;;;;;;;1999.90;999.90;;;22.20;99.90;;;;;;5099869;28;20399;-84
2021/06/26 09:11:53;;;;;;;1999.90;999.90;;;22.40;99.90;;;;;;5095614;28;20416;-84
2021/06/26 09:14:30;;;;;;;1999.90;999.90;;;22.50;99.90;;;;;;5080466;28;20760;-83
2021/06/26 09:17:18;;;;;;;1999.90;999.90;;;22.60;99.90;;;;;;5105190;28;20459;-84
2021/06/26 09:20:18;;;;;;;;;;;;;;;;;;;;;
2021/06/26 09:23:04;;;;;;;;;;;;;;;;;;;;;
2021/06/26 09:26:22;;;;;;;;;;;;;;;;;;;;;
2021/06/26 09:29:37;;;;;;;;;;;;;;;;;;;;;
2021/06/26 09:32:10;;;;;;;1999.90;999.90;;;23.40;96.20;;;;;;5061206;28;20997;-82
2021/06/26 09:35:05;;;;;;;1999.90;999.90;;;23.70;86.40;;;;;;5064888;28;20412;-83
2021/06/26 09:38:26;;;;;;;;;;;;;;;;;;;;;
2021/06/26 09:41:16;;;;;;;1999.90;999.90;;;24.20;84.50;;;;;;5096493;28;20449;-83
2021/06/26 09:43:58;;;;;;;1999.90;999.90;;;24.50;84.00;;;;;;5086076;28;20451;-83
2021/06/26 09:46:46;;;;;;;1999.90;999.90;;;24.70;58.40;;;;;;5102299;28;20416;-83
2021/06/26 09:49:55;;;;;;;1999.90;999.90;;;24.90;54.30;;;;;;5069092;28;20441;-83
2021/06/26 09:52:53;;;;;;;1999.90;999.90;;;24.80;50.60;;;;;;5101176;28;20421;-83
2021/06/26 09:55:56;;;;;;;1999.90;999.90;;;25.00;49.20;;;;;;5102344;28;20527;-83
2021/06/26 09:58:50;;;;;;;1999.90;999.90;;;25.30;33.00;;;;;;5083499;28;20496;-83
2021/06/26 10:01:46;;;;;;;1999.90;999.90;;;25.20;23.00;;;;;;5101928;28;20965;-83
2021/06/26 10:04:14;;;;;;;1999.90;999.90;;;25.40;13.00;;;;;;5085433;28;20938;-83
2021/06/26 10:07:21;;;;;;;1999.90;999.90;;;25.70;9.20;;;;;;5085189;28;20406;-83
2021/06/26 10:10:34;;;;;;;;;;;;;;;;;;;;;
2021/06/26 10:13:11;;;;;;;1999.90;999.90;;;25.80;6.20;;;;;;5103137;28;20493;-83
2021/06/26 10:15:49;;;;;;;1999.90;999.90;;;26.20;6.40;;;;;;5085692;28;20434;-84
2021/06/26 10:18:45;;;;;;;1999.90;999.90;;;26.40;9.60;;;;;;5103190;28;20392;-83
2021/06/26 10:21:21;;;;;;;1999.90;999.90;;;26.20;8.10;;;;;;5102243;28;20780;-83
2021/06/26 10:24:07;;;;;;;1999.90;999.90;;;26.10;9.90;;;;;;5084748;28;20948;-83
2021/06/26 10:26:40;;;;;;;1999.90;999.90;;;26.10;11.40;;;;;;5082095;28;20408;-83
2021/06/26 10:29:49;;;;;;;1999.90;999.90;;;26.30;10.70;;;;;;5099863;28;20949;-83
2021/06/26 10:32:51;;;;;;;1999.90;999.90;;;26.10;8.70;;;;;;5067642;28;20401;-83
2021/06/26 10:39:26;;;;;;;1999.90;999.90;;;26.70;8.40;;;;;;5099750;28;20417;-83
2021/06/26 10:49:09;;;;;;;1999.90;999.90;;;27.10;5.80;;;;;;5016519;28;20428;-83
2021/06/26 10:52:18;;;;;;;1999.90;999.90;;;27.70;4.20;;;;;;5016839;28;20468;-83
2021/06/26 10:55:28;;;;;;;1999.90;999.90;;;28.10;2.60;;;;;;5025609;28;20417;-83
2021/06/26 10:58:01;;;;;;;1999.90;999.90;;;28.40;1.00;;;;;;5099123;28;20469;-83
2021/06/26 11:00:59;;;;;;;1999.90;999.90;;;28.80;2.60;;;;;;5106384;22;20498;-83
2021/06/26 11:03:33;;;;;;;1999.90;999.90;;;29.00;1.00;;;;;;5080220;28;20757;-83
2021/06/26 11:06:15;;;;;;;1999.90;999.90;;;29.10;1.00;;;;;;5080300;28;20474;-83
2021/06/26 11:09:34;;;;;;;1999.90;999.90;;;29.10;1.00;;;;;;5098965;28;20369;-83
2021/06/26 11:12:38;;;;;;;1999.90;999.90;;;28.40;1.00;;;;;;5085270;28;20388;-83
2021/06/26 11:18:23;;;;;;;1999.90;999.90;;;28.00;1.00;;;;;;5098679;28;20385;-83
2021/06/26 11:24:34;;;;;;;1999.90;999.90;;;28.50;1.00;;;;;;5098622;28;20419;-83
2021/06/26 11:30:13;;;;;;;1999.90;999.90;;;28.50;1.00;;;;;;5073361;28;20933;-83
2021/06/26 11:36:37;;;;;;;1999.90;999.90;;;28.80;1.00;;;;;;5078816;28;20814;-83
2021/06/26 11:39:58;;;;;;;1999.90;999.90;;;28.80;1.00;;;;;;5079266;28;20424;-83
2021/06/26 11:42:50;;;;;;;;;;;;;;;;;;;;;
2021/06/26 11:45:41;;;;;;;1999.90;999.90;;;28.80;1.00;;;;;;5097280;28;20473;-83
2021/06/26 11:48:33;;;;;;;1999.90;999.90;;;28.90;1.00;;;;;;5079162;28;20805;-83
2021/06/26 11:51:10;;;;;;;1999.90;999.90;;;28.80;1.00;;;;;;5080694;28;20963;-83
2021/06/26 11:54:23;;;;;;;1999.90;999.90;;;29.30;1.00;;;;;;5080253;28;20408;-83
2021/06/26 12:00:38;;;;;;;1999.90;999.90;;;29.40;1.00;;;;;;5098565;28;20444;-83
2021/06/26 12:14:15;;;;;;;1999.90;999.90;;;28.40;1.00;;;;;;5014993;28;20401;-83
2021/06/26 12:17:35;;;;;;;1999.90;999.90;;;28.90;1.00;;;;;;5035649;28;20596;-83
2021/06/26 12:24:01;;;;;;;1999.90;999.90;;;28.00;1.00;;;;;;5013943;28;20458;-83
2021/06/26 12:26:46;;;;;;;1999.90;999.90;;;27.50;1.00;;;;;;5034579;28;20475;-83
2021/06/26 12:29:29;;;;;;;1999.90;999.90;;;28.00;1.00;;;;;;5019102;28;20415;-82
2021/06/26 12:35:39;;;;;;;1999.90;999.90;;;28.60;1.00;;;;;;5035417;28;20395;-82
2021/06/26 12:38:22;;;;;;;1999.90;999.90;;;29.00;1.00;;;;;;5058165;28;20405;-83
2021/06/26 12:44:25;;;;;;;1999.90;999.90;;;28.40;1.00;;;;;;4994652;28;20437;-83
2021/06/26 12:47:25;;;;;;;1999.90;999.90;;;28.50;1.00;;;;;;4995119;28;20410;-83
2021/06/26 12:50:12;;;;;;;1999.90;999.90;;;28.40;1.00;;;;;;4994484;28;20541;-83
2021/06/26 12:52:50;;;;;;;1999.90;999.90;;;28.40;1.00;;;;;;4995559;28;20513;-83
2021/06/26 12:55:59;;;;;;;1999.90;999.90;;;28.30;1.00;;;;;;4988616;28;20472;-83
2021/06/26 12:58:31;;;;;;;1999.90;999.90;;;28.20;1.00;;;;;;4979603;28;20406;-84
2021/06/26 13:01:42;;;;;;;1999.90;999.90;;;27.40;1.00;;;;;;5039328;28;20484;-83
2021/06/26 13:04:39;;;;;;;1999.90;999.90;;;27.20;1.00;;;;;;5072944;28;20434;-82
2021/06/26 13:11:21;;;;;;;1999.90;999.90;;;27.40;1.00;;;;;;5096546;28;20482;-83
2021/06/26 13:14:27;;;;;;;1999.90;999.90;;;27.50;1.00;;;;;;5046941;28;20409;-83
2021/06/26 13:23:10;;;;;;;1999.90;999.90;;;28.00;1.00;;;;;;5042352;28;20415;-83
2021/06/26 13:26:01;;;;;;;1999.90;999.90;;;28.30;1.00;;;;;;5096663;28;20378;-84
2021/06/26 13:29:22;;;;;;;1999.90;999.90;;;28.70;1.00;;;;;;5078516;28;20171;-84
2021/06/26 13:35:14;;;;;;;1999.90;999.90;;;29.50;1.00;;;;;;5061824;28;20405;-83
2021/06/26 13:37:40;;;;;;;1999.90;999.90;;;29.50;1.00;;;;;;5133857;22;20510;-82
2021/06/26 13:40:07;;;;;;;1999.90;999.90;;;29.10;1.00;;;;;;5057285;28;20790;-81
2021/06/26 13:42:38;;;;;;;1999.90;999.90;;;28.90;1.00;;;;;;5057680;28;20188;-82
2021/06/26 13:45:07;;;;;;;1999.90;999.90;;;28.80;1.00;;;;;;5058285;28;20425;-82
2021/06/26 13:47:33;;;;;;;1999.90;999.90;;;28.50;1.00;;;;;;5057296;28;20434;-82
2021/06/26 13:50:11;;;;;;;1999.90;999.90;;;28.20;1.00;;;;;;5057216;28;20446;-81
2021/06/26 13:52:37;;;;;;;1999.90;999.90;;;27.70;1.00;;;;;;5039508;28;20411;-81
2021/06/26 13:55:21;;;;;;;1999.90;999.90;;;28.00;1.00;;;;;;5057256;28;20399;-82
2021/06/26 13:57:47;;;;;;;1999.90;999.90;;;28.20;1.00;;;;;;5039883;28;20667;-82
2021/06/26 14:00:13;;;;;;;1999.90;999.90;;;28.30;1.00;;;;;;5058358;28;20423;-82
2021/06/26 14:02:52;;;;;;;;;;;;;;;;;;;;;
2021/06/26 14:05:37;;;;;;;1999.90;999.90;;;28.10;1.00;;;;;;5061217;28;20837;-82
2021/06/26 14:08:09;;;;;;;1999.90;999.90;;;27.50;1.00;;;;;;5043731;28;20740;-82
2021/06/26 14:10:54;;;;;;;1999.90;999.90;;;27.70;1.00;;;;;;5042459;28;20514;-82
2021/06/26 14:13:23;;;;;;;1999.90;999.90;;;27.80;1.00;;;;;;5042791;28;20407;-82
2021/06/26 14:15:55;;;;;;;1999.90;999.90;;;28.20;1.00;;;;;;5042362;28;20407;-82
2021/06/26 14:18:33;;;;;;;1999.90;999.90;;;27.90;1.00;;;;;;5042423;28;20422;-81
2021/06/26 14:20:59;;;;;;;1999.90;999.90;;;27.90;1.00;;;;;;5042608;28;20449;-82
2021/06/26 14:23:33;;;;;;;1999.90;999.90;;;28.00;1.00;;;;;;5043085;28;20441;-82
2021/06/26 14:26:02;;;;;;;1999.90;999.90;;;28.00;1.00;;;;;;5060439;28;20160;-82
2021/06/26 14:28:28;;;;;;;1999.90;999.90;;;28.20;1.00;;;;;;5060211;28;20891;-81
2021/06/26 14:30:54;;;;;;;1999.90;999.90;;;28.30;1.00;;;;;;5060566;28;20457;-82
2021/06/26 14:33:20;;;;;;;1999.90;999.90;;;28.40;1.00;;;;;;5060060;28;20169;-82
2021/06/26 14:35:45;;;;;;;1999.90;999.90;;;28.90;1.00;;;;;;5059772;28;20171;-82
2021/06/26 14:38:12;;;;;;;1999.90;999.90;;;28.90;1.00;;;;;;5060199;28;20506;-82
2021/06/26 14:40:38;;;;;;;1999.90;999.90;;;28.70;1.00;;;;;;5058799;28;20200;-82
2021/06/26 14:43:04;;;;;;;1999.90;999.90;;;28.90;1.00;;;;;;5060358;28;20767;-82
2021/06/26 14:45:30;;;;;;;1999.90;999.90;;;29.20;1.00;;;;;;5058874;28;20407;-82
2021/06/26 14:47:55;;;;;;;1999.90;999.90;;;29.40;1.00;;;;;;5060160;28;20161;-82
2021/06/26 14:50:24;;;;;;;1999.90;999.90;;;29.50;1.00;;;;;;5060488;28;20185;-82
2021/06/26 14:52:50;;;;;;;1999.90;999.90;;;29.60;1.00;;;;;;5060287;28;20167;-82